Time;durP1;ratioP1;P1;durP2;ratioP2;P2;SDS_P1;SDS_P2;PMS_P1;PMS_P2;Temp;Humidity;BMP_temperature;BMP_pressure;BME280_temperature;BME280_humidity;BME280_pressure;Samples;Min_cycle;Max_cycle;Signal;HPM_P1;HPM_P2
2024/02/23 00:00:18;;;;;;;;;;;;;;;22.45;32.40;99178.75;4131486;28;19955;-62
2024/02/23 00:02:19;;;;;;;;;;;;;;;22.44;32.48;99187.81;4131242;28;20046;-62
2024/02/23 00:04:21;;;;;;;;;;;;;;;22.43;32.65;99180.78;4131568;28;20367;-63
2024/02/23 00:06:27;;;;;;;;;;;;;;;22.44;32.43;99190.47;4131565;28;19926;-62
2024/02/23 00:08:28;;;;;;;;;;;;;;;22.42;32.72;99194.31;4131487;28;19935;-62
2024/02/23 00:10:30;;;;;;;;;;;;;;;22.41;32.69;99196.16;4130946;28;19933;-62
2024/02/23 00:12:32;;;;;;;;;;;;;;;22.40;32.71;99196.34;4131150;28;19937;-62
2024/02/23 00:14:36;;;;;;;;;;;;;;;22.39;32.75;99186.63;4133794;28;19932;-62
2024/02/23 00:16:40;;;;;;;;;;;;;;;22.39;32.80;99198.16;4134412;28;19932;-62
2024/02/23 00:18:42;;;;;;;;;;;;;;;22.40;32.51;99196.34;4134252;28;19926;-62
2024/02/23 00:20:44;;;;;;;;;;;;;;;22.40;32.41;99196.34;4134174;28;19926;-62
2024/02/23 00:22:45;;;;;;;;;;;;;;;22.41;32.67;99206.06;4134087;28;20384;-62
2024/02/23 00:24:47;;;;;;;;;;;;;;;22.40;32.67;99199.84;4133624;28;20020;-62
2024/02/23 00:26:50;;;;;;;;;;;;;;;22.42;32.71;99199.66;4134048;28;19949;-62
2024/02/23 00:28:52;;;;;;;;;;;;;;;22.41;32.77;99203.38;4133880;28;19925;-62
2024/02/23 00:30:53;;;;;;;;;;;;;;;22.40;32.42;99209.75;4134198;28;19961;-62
2024/02/23 00:32:55;;;;;;;;;;;;;;;22.40;32.48;99194.50;4134086;28;19945;-62
2024/02/23 00:34:57;;;;;;;;;;;;;;;22.40;32.49;99199.03;4133822;28;19965;-62
2024/02/23 00:36:59;;;;;;;;;;;;;;;22.38;32.37;99199.16;4133966;28;19926;-62
2024/02/23 00:39:00;;;;;;;;;;;;;;;22.38;32.63;99201.00;4133669;28;19933;-62
2024/02/23 00:41:02;;;;;;;;;;;;;;;22.37;32.31;99212.72;4133820;28;19926;-62
2024/02/23 00:43:04;;;;;;;;;;;;;;;22.36;32.61;99203.00;4133928;28;20005;-63
2024/02/23 00:45:06;;;;;;;;;;;;;;;22.36;32.44;99198.50;4133785;28;19926;-62
2024/02/23 00:47:07;;;;;;;;;;;;;;;22.35;32.67;99204.84;4133646;28;19925;-62
2024/02/23 00:49:09;;;;;;;;;;;;;;;22.37;32.48;99202.84;4133735;28;19925;-62
2024/02/23 00:51:10;;;;;;;;;;;;;;;22.36;32.58;99200.31;4133763;28;20078;-62
2024/02/23 00:53:12;;;;;;;;;;;;;;;22.37;32.58;99208.19;4133292;28;19926;-62
2024/02/23 00:55:13;;;;;;;;;;;;;;;22.37;32.58;99210.03;4133571;28;19926;-62
2024/02/23 00:57:15;;;;;;;;;;;;;;;22.36;32.37;99217.25;4133716;28;20362;-62
2024/02/23 00:59:17;;;;;;;;;;;;;;;22.36;32.54;99203.00;4133623;28;20343;-63
2024/02/23 01:01:19;;;;;;;;;;;;;;;22.36;32.37;99195.81;4133338;28;19926;-61
2024/02/23 01:03:21;;;;;;;;;;;;;;;22.33;32.14;99209.53;4116510;28;19930;-60
2024/02/23 01:05:22;;;;;;;;;;;;;;;22.32;32.39;99198.00;4133554;28;19933;-61
2024/02/23 01:07:24;;;;;;;;;;;;;;;22.32;32.51;99203.34;4133679;28;19961;-62
2024/02/23 01:09:25;;;;;;;;;;;;;;;22.32;32.57;99202.50;4133132;28;19932;-61
2024/02/23 01:11:27;;;;;;;;;;;;;;;22.30;32.48;99194.63;4133355;28;19926;-62
2024/02/23 01:13:29;;;;;;;;;;;;;;;22.30;32.29;99194.63;4133113;28;19980;-62
2024/02/23 01:15:34;;;;;;;;;;;;;;;22.29;32.41;99201.00;4133601;28;19930;-62
2024/02/23 01:17:35;;;;;;;;;;;;;;;22.31;32.38;99207.03;4133346;28;19957;-61
2024/02/23 01:19:37;;;;;;;;;;;;;;;22.32;32.45;99207.84;4133271;28;20300;-62
2024/02/23 01:21:39;;;;;;;;;;;;;;;22.32;32.38;99207.84;4133416;28;19926;-62
2024/02/23 01:23:40;;;;;;;;;;;;;;;22.33;32.40;99206.84;4132995;28;19977;-62
2024/02/23 01:25:42;;;;;;;;;;;;;;;22.33;32.24;99194.31;4132306;28;19926;-62
2024/02/23 01:27:44;;;;;;;;;;;;;;;22.32;32.48;99199.81;4133176;28;20015;-62
2024/02/23 01:29:46;;;;;;;;;;;;;;;22.33;32.15;99188.09;4133363;28;19977;-62
2024/02/23 01:31:47;;;;;;;;;;;;;;;22.32;32.29;99175.72;4133193;28;19933;-62
2024/02/23 01:33:50;;;;;;;;;;;;;;;22.30;32.31;99181.25;4133154;28;19932;-62
2024/02/23 01:35:52;;;;;;;;;;;;;;;22.31;32.41;99174.88;4132988;28;20306;-62
2024/02/23 01:37:53;;;;;;;;;;;;;;;22.29;32.39;99174.22;4132427;28;20511;-61
2024/02/23 01:39:55;;;;;;;;;;;;;;;22.28;32.55;99161.00;4132871;28;19926;-62
2024/02/23 01:41:59;;;;;;;;;;;;;;;22.26;32.31;99163.00;4132988;28;19926;-61
2024/02/23 01:44:01;;;;;;;;;;;;;;;22.26;32.54;99163.00;4132948;28;19929;-61
2024/02/23 01:46:03;;;;;;;;;;;;;;;22.27;32.36;99170.03;4115977;28;19926;-61
2024/02/23 01:48:05;;;;;;;;;;;;;;;22.27;32.61;99175.38;4132841;28;19968;-61
2024/02/23 01:50:08;;;;;;;;;;;;;;;22.28;32.48;99166.34;4132651;28;20441;-61
2024/02/23 01:52:10;;;;;;;;;;;;;;;22.27;32.48;99159.31;4132612;28;19932;-61
2024/02/23 01:54:11;;;;;;;;;;;;;;;22.27;32.34;99167.34;4132465;28;20314;-61
2024/02/23 01:56:17;;;;;;;;;;;;;;;22.26;32.47;99163.84;4132896;28;19980;-62
2024/02/23 01:58:20;;;;;;;;;;;;;;;22.26;32.43;99160.31;4132858;28;20306;-62
2024/02/23 02:00:22;;;;;;;;;;;;;;;22.25;32.11;99159.50;4132647;28;19932;-62
2024/02/23 02:02:29;;;;;;;;;;;;;;;22.25;32.19;99150.59;4133040;28;20012;-61
2024/02/23 02:04:30;;;;;;;;;;;;;;;22.23;32.41;99152.63;4132526;28;19934;-62
2024/02/23 02:06:32;;;;;;;;;;;;;;;22.24;32.46;99152.47;4132471;28;19933;-62
2024/02/23 02:08:34;;;;;;;;;;;;;;;22.22;32.28;99159.00;4132572;28;19926;-62
2024/02/23 02:10:36;;;;;;;;;;;;;;;22.21;32.50;99151.97;4132461;28;19968;-62
2024/02/23 02:12:37;;;;;;;;;;;;;;;22.21;32.58;99158.13;4132675;28;19929;-62
2024/02/23 02:14:44;;;;;;;;;;;;;;;22.24;32.19;99151.63;4132524;28;20383;-62
2024/02/23 02:16:50;;;;;;;;;;;;;;;22.24;32.19;99146.28;4132631;28;20012;-62
2024/02/23 02:18:52;;;;;;;;;;;;;;;22.23;32.33;99148.09;4132525;28;19929;-61
2024/02/23 02:20:57;;;;;;;;;;;;;;;22.24;32.40;99146.28;4131904;28;20021;-62
2024/02/23 02:22:59;;;;;;;;;;;;;;;22.23;32.48;99148.09;4132211;28;19968;-62
2024/02/23 02:25:00;;;;;;;;;;;;;;;22.22;32.32;99140.25;4114896;28;20021;-62
2024/02/23 02:27:07;;;;;;;;;;;;;;;22.23;32.42;99144.59;4132354;28;20024;-62
2024/02/23 02:29:14;;;;;;;;;;;;;;;22.22;32.45;99150.97;4132287;28;19945;-63
2024/02/23 02:31:16;;;;;;;;;;;;;;;22.20;32.15;99145.78;4132429;28;20387;-63
2024/02/23 02:33:18;;;;;;;;;;;;;;;22.20;32.18;99135.06;4132187;28;19926;-62
2024/02/23 02:35:19;;;;;;;;;;;;;;;22.19;32.36;99136.06;4131903;28;19933;-62
2024/02/23 02:37:21;;;;;;;;;;;;;;;22.17;32.44;99138.06;4132523;28;19926;-62
2024/02/23 02:39:22;;;;;;;;;;;;;;;22.15;32.53;99132.91;4132037;28;19930;-62
2024/02/23 02:41:32;;;;;;;;;;;;;;;22.15;32.37;99116.81;4132092;28;20020;-62
2024/02/23 02:43:33;;;;;;;;;;;;;;;22.15;32.29;99103.44;4132267;28;19925;-62
2024/02/23 02:45:35;;;;;;;;;;;;;;;22.16;32.25;99106.94;4131962;28;19926;-62
2024/02/23 02:47:36;;;;;;;;;;;;;;;22.17;32.38;99113.97;4132507;28;19933;-62
2024/02/23 02:49:39;;;;;;;;;;;;;;;22.18;32.26;99105.75;4131771;28;19925;-62
2024/02/23 02:51:41;;;;;;;;;;;;;;;22.18;32.28;99102.25;4132075;28;19932;-62
2024/02/23 02:53:42;;;;;;;;;;;;;;;22.19;32.23;99101.25;4131898;28;19930;-62
2024/02/23 02:55:44;;;;;;;;;;;;;;;22.19;32.33;99093.22;4131923;28;20351;-62
2024/02/23 02:57:46;;;;;;;;;;;;;;;22.19;32.19;99093.22;4131932;28;19926;-62
2024/02/23 02:59:49;;;;;;;;;;;;;;;22.18;32.59;99099.59;4131853;28;19926;-62
2024/02/23 03:01:51;;;;;;;;;;;;;;;22.16;32.19;99091.72;4131923;28;19930;-62
2024/02/23 03:03:52;;;;;;;;;;;;;;;22.16;32.45;99088.19;4131631;28;20351;-62
2024/02/23 03:05:59;;;;;;;;;;;;;;;22.14;32.58;99085.69;4131697;28;19997;-62
2024/02/23 03:08:00;;;;;;;;;;;;;;;22.13;32.42;99084.03;4131685;28;19925;-62
2024/02/23 03:10:02;;;;;;;;;;;;;;;22.13;32.20;99077.84;4131955;28;19944;-61
2024/02/23 03:12:04;;;;;;;;;;;;;;;22.14;32.40;99074.13;4131794;28;19932;-62
2024/02/23 03:14:06;;;;;;;;;;;;;;;22.14;32.28;99069.63;4131820;28;19926;-62
2024/02/23 03:16:14;;;;;;;;;;;;;;;22.15;32.38;99067.78;4132146;28;19929;-62
2024/02/23 03:18:15;;;;;;;;;;;;;;;22.14;32.34;99058.94;4131428;28;20017;-62
2024/02/23 03:20:17;;;;;;;;;;;;;;;22.14;32.33;99056.25;4131589;28;19932;-62
2024/02/23 03:22:19;;;;;;;;;;;;;;;22.14;32.35;99050.88;4131863;28;19933;-62
2024/02/23 03:24:20;;;;;;;;;;;;;;;22.13;32.57;99053.75;4131503;28;19957;-62
2024/02/23 03:26:22;;;;;;;;;;;;;;;22.12;32.41;99052.91;4131632;28;19926;-62
2024/02/23 03:28:23;;;;;;;;;;;;;;;22.12;32.18;99052.91;4131607;28;19936;-61
2024/02/23 03:30:30;;;;;;;;;;;;;;;21.98;32.16;99026.81;4131735;28;19964;-62
2024/02/23 03:32:36;;;;;;;;;;;;;;;22.09;32.47;99037.19;4131375;28;20413;-61
2024/02/23 03:34:38;;;;;;;;;;;;;;;22.07;32.18;99039.19;4131358;28;20395;-62
2024/02/23 03:36:39;;;;;;;;;;;;;;;22.07;32.29;99057.13;4131679;28;19926;-61
2024/02/23 03:38:41;;;;;;;;;;;;;;;22.07;32.44;99039.19;4131566;28;19957;-62
2024/02/23 03:40:42;;;;;;;;;;;;;;;22.05;32.32;99022.47;4131694;28;19933;-62
2024/02/23 03:42:44;;;;;;;;;;;;;;;22.06;31.97;99012.59;4131496;28;19984;-62
2024/02/23 03:44:46;;;;;;;;;;;;;;;22.06;32.28;99004.56;4131677;28;19932;-62
2024/02/23 03:46:47;;;;;;;;;;;;;;;22.08;32.35;99010.56;4131476;28;19926;-62
2024/02/23 03:48:49;;;;;;;;;;;;;;;22.08;32.24;99007.88;4115360;28;19934;-62
2024/02/23 03:50:50;;;;;;;;;;;;;;;22.07;32.30;99004.38;4134760;28;19934;-62
2024/02/23 03:52:52;;;;;;;;;;;;;;;22.07;32.28;99007.06;4134733;28;19984;-61
2024/02/23 03:54:54;;;;;;;;;;;;;;;22.07;32.34;99003.56;4134527;28;20343;-62
2024/02/23 03:56:56;;;;;;;;;;;;;;;22.06;32.43;99002.72;4134699;28;20429;-62
2024/02/23 03:58:57;;;;;;;;;;;;;;;22.04;32.38;99002.03;4135213;28;20021;-62
2024/02/23 04:00:59;;;;;;;;;;;;;;;22.05;32.13;99003.72;4134646;28;20359;-62
2024/02/23 04:03:00;;;;;;;;;;;;;;;22.04;32.33;99004.72;4134214;28;19926;-61
2024/02/23 04:05:02;;;;;;;;;;;;;;;22.01;32.33;99005.91;4134694;28;19933;-61
2024/02/23 04:07:04;;;;;;;;;;;;;;;22.02;32.37;98998.72;4134667;28;19929;-61
2024/02/23 04:09:05;;;;;;;;;;;;;;;22.02;32.30;99004.06;4117358;28;19926;-62
2024/02/23 04:11:07;;;;;;;;;;;;;;;22.02;32.31;98996.88;4134520;28;19925;-62
2024/02/23 04:13:10;;;;;;;;;;;;;;;22.01;32.39;98997.88;4134396;28;19957;-62
2024/02/23 04:15:12;;;;;;;;;;;;;;;22.02;32.27;98996.88;4134621;28;19933;-61
2024/02/23 04:17:13;;;;;;;;;;;;;;;22.03;32.32;98995.03;4134085;28;19926;-61
2024/02/23 04:19:15;;;;;;;;;;;;;;;22.01;32.33;98992.50;4134167;28;19929;-62
2024/02/23 04:21:16;;;;;;;;;;;;;;;22.01;32.19;98991.69;4134482;28;20311;-62
2024/02/23 04:23:18;;;;;;;;;;;;;;;22.02;32.28;98988.00;4134156;28;20379;-61
2024/02/23 04:25:19;;;;;;;;;;;;;;;22.00;32.27;98987.34;4134193;28;19925;-62
2024/02/23 04:27:21;;;;;;;;;;;;;;;22.01;32.04;98983.66;4134229;28;19926;-61
2024/02/23 04:29:22;;;;;;;;;;;;;;;21.99;32.37;98975.81;4134310;28;19930;-61
2024/02/23 04:31:24;;;;;;;;;;;;;;;21.99;32.12;98977.63;4133955;28;19930;-62
2024/02/23 04:33:26;;;;;;;;;;;;;;;21.99;32.14;98983.00;4134224;28;19930;-62
2024/02/23 04:35:27;;;;;;;;;;;;;;;21.98;32.21;98975.97;4134081;28;19981;-62
2024/02/23 04:37:29;;;;;;;;;;;;;;;21.97;32.26;98976.97;4134135;28;19926;-61
2024/02/23 04:39:34;;;;;;;;;;;;;;;21.96;32.28;98981.50;4134014;28;20352;-62
2024/02/23 04:41:35;;;;;;;;;;;;;;;21.97;32.36;98968.94;4134041;28;20289;-62
2024/02/23 04:43:37;;;;;;;;;;;;;;;21.97;32.27;98972.47;4134026;28;19925;-62
2024/02/23 04:45:38;;;;;;;;;;;;;;;21.98;32.20;98973.28;4133775;28;19989;-62
2024/02/23 04:47:40;;;;;;;;;;;;;;;21.99;32.26;98974.97;4134073;28;19938;-62
2024/02/23 04:49:42;;;;;;;;;;;;;;;21.99;31.93;98981.16;4134046;28;19961;-61
2024/02/23 04:51:43;;;;;;;;;;;;;;;21.98;32.27;98995.56;4133811;28;19925;-62
2024/02/23 04:53:46;;;;;;;;;;;;;;;21.98;32.19;98997.38;4133754;28;19933;-62
2024/02/23 04:55:48;;;;;;;;;;;;;;;21.98;32.41;98998.22;4133756;28;19926;-61
2024/02/23 04:57:50;;;;;;;;;;;;;;;21.97;32.21;98998.38;4133987;28;20277;-62
2024/02/23 04:59:52;;;;;;;;;;;;;;;21.95;32.15;99001.22;4132272;28;19937;-61
2024/02/23 05:01:53;;;;;;;;;;;;;;;21.93;32.21;98995.19;4134007;28;19925;-62
2024/02/23 05:03:55;;;;;;;;;;;;;;;21.93;32.35;99002.41;4133819;28;19972;-61
2024/02/23 05:05:56;;;;;;;;;;;;;;;21.92;32.18;98984.69;4133744;28;20401;-62
2024/02/23 05:08:01;;;;;;;;;;;;;;;21.91;32.35;98994.56;4133825;28;19992;-61
2024/02/23 05:10:03;;;;;;;;;;;;;;;21.92;32.23;98993.56;4133372;28;19981;-62
2024/02/23 05:12:05;;;;;;;;;;;;;;;21.94;32.30;98999.56;4133554;28;20415;-62
2024/02/23 05:14:07;;;;;;;;;;;;;;;21.94;31.99;98994.19;4133086;28;19965;-61
2024/02/23 05:16:08;;;;;;;;;;;;;;;21.95;32.32;98995.88;4133657;28;20016;-62
2024/02/23 05:18:10;;;;;;;;;;;;;;;21.95;32.26;99003.91;4133445;28;20438;-61
2024/02/23 05:20:12;;;;;;;;;;;;;;;21.96;32.17;99007.44;4133500;28;19930;-62
2024/02/23 05:22:13;;;;;;;;;;;;;;;21.96;32.24;99007.44;4133061;28;19926;-62
2024/02/23 05:24:15;;;;;;;;;;;;;;;21.96;32.14;99004.75;4133582;28;20069;-62
2024/02/23 05:26:17;;;;;;;;;;;;;;;21.95;32.29;99008.44;4133438;28;20395;-62
2024/02/23 05:28:18;;;;;;;;;;;;;;;21.94;32.43;99006.75;4133455;28;19926;-61
2024/02/23 05:30:20;;;;;;;;;;;;;;;21.94;32.40;99004.91;4133020;28;19969;-61
2024/02/23 05:32:21;;;;;;;;;;;;;;;21.92;32.10;99008.75;4133106;28;20016;-62
2024/02/23 05:34:28;;;;;;;;;;;;;;;21.92;32.21;99017.66;4133106;28;20332;-61
2024/02/23 05:36:37;;;;;;;;;;;;;;;21.91;32.30;99017.78;4133184;28;19972;-62
2024/02/23 05:38:39;;;;;;;;;;;;;;;21.92;31.90;99006.09;4133096;28;19925;-62
2024/02/23 05:40:40;;;;;;;;;;;;;;;21.92;32.37;99003.41;4116196;28;19926;-62
2024/02/23 05:42:42;;;;;;;;;;;;;;;21.93;32.06;99003.22;4133115;28;20381;-62
2024/02/23 05:44:44;;;;;;;;;;;;;;;21.94;32.25;99004.91;4132982;28;20016;-62
2024/02/23 05:46:51;;;;;;;;;;;;;;;21.96;32.08;98994.06;4133039;28;19972;-62
2024/02/23 05:48:57;;;;;;;;;;;;;;;21.96;32.32;98986.03;4133072;28;19926;-61
2024/02/23 05:50:59;;;;;;;;;;;;;;;21.95;32.21;98995.88;4133077;28;19925;-62
2024/02/23 05:53:01;;;;;;;;;;;;;;;21.94;32.27;98996.88;4133113;28;19992;-62
2024/02/23 05:55:03;;;;;;;;;;;;;;;21.94;32.23;98996.06;4132493;28;19926;-62
2024/02/23 05:57:05;;;;;;;;;;;;;;;21.93;32.25;98997.06;4132937;28;19960;-61
2024/02/23 05:59:12;;;;;;;;;;;;;;;21.93;32.24;98997.06;4132578;28;19965;-62
2024/02/23 06:01:18;;;;;;;;;;;;;;;21.92;32.08;98985.53;4132970;28;19925;-62
2024/02/23 06:03:20;;;;;;;;;;;;;;;21.90;32.20;98982.19;4115554;28;19957;-62
2024/02/23 06:05:22;;;;;;;;;;;;;;;21.89;32.22;98988.53;4132980;28;20026;-61
2024/02/23 06:07:28;;;;;;;;;;;;;;;21.90;32.20;98986.72;4132572;28;19961;-62
2024/02/23 06:09:30;;;;;;;;;;;;;;;21.92;32.01;98984.69;4132997;28;20407;-61
2024/02/23 06:11:32;;;;;;;;;;;;;;;21.92;32.17;98982.00;4132228;28;19960;-61
2024/02/23 06:13:34;;;;;;;;;;;;;;;21.91;32.19;98978.50;4132261;28;19925;-61
2024/02/23 06:15:35;;;;;;;;;;;;;;;21.92;32.31;98982.00;4132391;28;19985;-62
2024/02/23 06:17:38;;;;;;;;;;;;;;;21.92;31.99;98990.03;4132606;28;20473;-63
2024/02/23 06:19:41;;;;;;;;;;;;;;;21.92;32.17;98992.72;4132663;28;19932;-62
2024/02/23 06:21:43;;;;;;;;;;;;;;;21.91;32.07;98988.34;4132810;28;19961;-61
2024/02/23 06:23:44;;;;;;;;;;;;;;;21.90;32.08;98989.38;4132295;28;19981;-61
2024/02/23 06:25:46;;;;;;;;;;;;;;;21.88;31.86;98989.53;4132573;28;19953;-61
2024/02/23 06:27:48;;;;;;;;;;;;;;;21.88;32.01;98988.72;4132253;28;19934;-61
2024/02/23 06:29:50;;;;;;;;;;;;;;;21.85;31.69;98977.34;4132497;28;20112;-61
2024/02/23 06:31:51;;;;;;;;;;;;;;;21.84;32.09;98983.69;4132336;28;19977;-61
2024/02/23 06:33:58;;;;;;;;;;;;;;;21.83;31.82;98976.66;4106809;28;19969;-61
2024/02/23 06:35:59;;;;;;;;;;;;;;;21.82;31.98;98979.50;4115988;28;19926;-62
2024/02/23 06:38:01;;;;;;;;;;;;;;;21.82;32.15;98987.53;4116070;28;20324;-61
2024/02/23 06:40:04;;;;;;;;;;;;;;;21.81;31.98;98977.84;4116271;28;20366;-61
2024/02/23 06:42:05;;;;;;;;;;;;;;;21.79;32.10;98970.00;4115764;28;20320;-61
2024/02/23 06:44:07;;;;;;;;;;;;;;;21.79;31.78;98983.38;4099159;29;19926;-61
2024/02/23 06:46:13;;;;;;;;;;;;;;;21.78;32.16;98981.69;4116101;28;19926;-61
2024/02/23 06:48:15;;;;;;;;;;;;;;;21.77;32.12;98976.53;4116272;28;20010;-61
2024/02/23 06:50:16;;;;;;;;;;;;;;;21.74;32.01;98975.03;4116053;28;20455;-61
2024/02/23 06:52:18;;;;;;;;;;;;;;;21.74;32.19;98988.41;4116216;28;19926;-61
2024/02/23 06:54:19;;;;;;;;;;;;;;;21.73;32.24;98977.88;4115922;28;19930;-61
2024/02/23 06:56:21;;;;;;;;;;;;;;;21.71;32.09;98983.38;4115777;28;19933;-61
2024/02/23 06:58:22;;;;;;;;;;;;;;;21.68;32.12;98973.03;4116129;28;19933;-61
2024/02/23 07:00:24;;;;;;;;;;;;;;;21.67;32.20;98979.38;4115895;28;20458;-61
2024/02/23 07:02:26;;;;;;;;;;;;;;;21.65;32.32;98986.72;4115749;28;19937;-61
2024/02/23 07:04:29;;;;;;;;;;;;;;;21.40;32.25;98935.91;4115880;28;20403;-61
2024/02/23 07:06:31;;;;;;;;;;;;;;;21.65;32.14;98974.22;4115656;28;20021;-61
2024/02/23 07:08:33;;;;;;;;;;;;;;;21.65;32.31;98976.88;4115697;28;20285;-60
2024/02/23 07:10:35;;;;;;;;;;;;;;;21.65;32.38;98981.38;4115476;28;20340;-60
2024/02/23 07:12:36;;;;;;;;;;;;;;;21.64;32.17;98985.91;4115708;28;19953;-61
2024/02/23 07:14:38;;;;;;;;;;;;;;;21.63;32.36;98981.56;4115695;28;19981;-61
2024/02/23 07:16:40;;;;;;;;;;;;;;;21.63;32.22;98986.06;4115781;28;20182;-61
2024/02/23 07:18:42;;;;;;;;;;;;;;;21.63;32.28;98981.56;4115725;28;19964;-62
2024/02/23 07:20:43;;;;;;;;;;;;;;;21.63;32.33;98978.88;4115674;28;19933;-61
2024/02/23 07:22:48;;;;;;;;;;;;;;;21.62;32.29;98987.91;4115086;28;19956;-62
2024/02/23 07:24:49;;;;;;;;;;;;;;;21.60;32.31;98989.09;4115305;28;20380;-61
2024/02/23 07:26:51;;;;;;;;;;;;;;;21.59;32.48;98982.06;4115849;28;19976;-60
2024/02/23 07:28:53;;;;;;;;;;;;;;;21.59;32.24;98980.22;4115649;28;20304;-62
2024/02/23 07:30:54;;;;;;;;;;;;;;;21.61;32.23;98988.09;4115864;28;19926;-62
2024/02/23 07:32:56;;;;;;;;;;;;;;;21.62;32.36;98984.41;4116204;28;19949;-61
2024/02/23 07:34:58;;;;;;;;;;;;;;;21.63;31.95;98988.72;4131522;28;19926;-62
2024/02/23 07:37:03;;;;;;;;;;;;;;;21.64;32.40;98987.72;4131490;28;20295;-61
2024/02/23 07:39:05;;;;;;;;;;;;;;;21.63;32.49;98981.56;4131340;28;19932;-63
2024/02/23 07:41:07;;;;;;;;;;;;;;;21.65;32.13;98979.56;4131382;28;19989;-61
2024/02/23 07:43:10;;;;;;;;;;;;;;;21.65;32.41;98974.22;4131381;28;19926;-60
2024/02/23 07:45:12;;;;;;;;;;;;;;;21.66;32.25;98981.19;4131604;28;20311;-62
2024/02/23 07:47:13;;;;;;;;;;;;;;;21.65;32.34;98987.59;4131574;28;19926;-60
2024/02/23 07:49:15;;;;;;;;;;;;;;;21.65;32.48;98984.91;4131468;28;19930;-62
2024/02/23 07:51:17;;;;;;;;;;;;;;;21.64;32.28;98985.91;4131375;28;19929;-62
2024/02/23 07:53:18;;;;;;;;;;;;;;;21.65;32.22;98987.59;4131458;28;19972;-62
2024/02/23 07:55:20;;;;;;;;;;;;;;;21.65;31.95;98992.09;4130933;28;19936;-63
2024/02/23 07:57:22;;;;;;;;;;;;;;;21.65;32.29;99002.78;4114292;28;20408;-62
2024/02/23 07:59:23;;;;;;;;;;;;;;;21.66;32.12;99009.81;4131632;28;20281;-62
2024/02/23 08:01:25;;;;;;;;;;;;;;;21.66;32.26;99007.97;4131395;28;20281;-62
2024/02/23 08:03:27;;;;;;;;;;;;;;;21.68;32.25;99007.81;4131441;28;19936;-62
2024/02/23 08:05:28;;;;;;;;;;;;;;;21.69;32.25;99015.66;4131460;28;19930;-62
2024/02/23 08:07:32;;;;;;;;;;;;;;;21.69;32.18;99004.97;4131306;28;19926;-62
2024/02/23 08:09:33;;;;;;;;;;;;;;;21.72;31.92;99000.28;4130921;28;19962;-62
2024/02/23 08:11:35;;;;;;;;;;;;;;;21.73;32.14;98996.59;4131677;28;19926;-62
2024/02/23 08:13:38;;;;;;;;;;;;;;;21.71;32.24;99002.09;4131349;28;20257;-61
2024/02/23 08:15:39;;;;;;;;;;;;;;;21.72;32.26;99003.78;4131325;28;19930;-62
2024/02/23 08:17:41;;;;;;;;;;;;;;;21.73;32.29;98997.44;4131422;28;19933;-62
2024/02/23 08:19:42;;;;;;;;;;;;;;;21.72;32.10;98995.75;4131156;28;20021;-61
2024/02/23 08:21:44;;;;;;;;;;;;;;;21.71;32.24;99004.78;4131354;28;20057;-62
2024/02/23 08:23:46;;;;;;;;;;;;;;;21.72;32.01;99013.66;4131054;28;19926;-62
2024/02/23 08:25:47;;;;;;;;;;;;;;;21.72;32.16;99001.09;4114004;28;19969;-61
2024/02/23 08:27:49;;;;;;;;;;;;;;;21.72;32.08;99005.63;4131430;28;20024;-62
2024/02/23 08:29:51;;;;;;;;;;;;;;;21.73;31.86;99000.09;4131222;28;19965;-62
2024/02/23 08:31:52;;;;;;;;;;;;;;;21.74;32.09;99004.47;4131111;28;19938;-61
2024/02/23 08:33:54;;;;;;;;;;;;;;;21.74;32.15;99007.13;4126062;28;19925;-62
2024/02/23 08:35:55;;;;;;;;;;;;;;;21.76;31.83;99007.78;4133884;28;19933;-62
2024/02/23 08:37:57;;;;;;;;;;;;;;;21.76;32.05;99012.31;4133713;28;19961;-61
2024/02/23 08:39:59;;;;;;;;;;;;;;;21.77;31.69;99022.00;4126183;28;19933;-59
2024/02/23 08:42:00;;;;;;;;;;;;;;;21.80;31.74;99018.97;4121207;28;19926;-57
2024/02/23 08:44:02;;;;;;;;;;;;;;;21.79;31.95;99018.16;4124281;28;20024;-62
2024/02/23 08:46:04;;;;;;;;;;;;;;;21.78;32.02;99031.72;4126124;28;19932;-63
2024/02/23 08:48:14;;;;;;;;;;;;;;;21.75;32.31;99011.50;4127351;28;19934;-64
2024/02/23 08:50:16;;;;;;;;;;;;;;;21.77;31.94;99013.97;4123361;28;20275;-63
2024/02/23 08:52:19;;;;;;;;;;;;;;;21.76;31.90;99010.44;4118477;28;19926;-62
2024/02/23 08:54:20;;;;;;;;;;;;;;;21.80;31.79;99027.00;4116514;28;19926;-60
2024/02/23 08:56:22;;;;;;;;;;;;;;;21.80;31.61;99017.16;4117417;28;20006;-61
2024/02/23 08:58:23;;;;;;;;;;;;;;;21.83;31.98;99018.66;4123763;28;19926;-61
2024/02/23 09:00:25;;;;;;;;;;;;;;;21.85;31.93;99016.66;4122956;28;19926;-61
2024/02/23 09:02:26;;;;;;;;;;;;;;;21.85;32.06;99014.81;4118767;28;19926;-60
2024/02/23 09:04:28;;;;;;;;;;;;;;;21.86;32.13;99016.47;4116901;28;19926;-61
2024/02/23 09:06:31;;;;;;;;;;;;;;;21.89;32.07;99022.50;4117800;28;19934;-61
2024/02/23 09:08:35;;;;;;;;;;;;;;;21.91;31.99;99015.13;4116815;28;19930;-64
2024/02/23 09:10:37;;;;;;;;;;;;;;;21.92;31.73;99012.28;4116609;28;20000;-65
2024/02/23 09:12:38;;;;;;;;;;;;;;;21.92;32.11;99017.66;4124272;28;19936;-62
2024/02/23 09:14:41;;;;;;;;;;;;;;;21.94;32.14;99025.50;4117074;28;20335;-60
2024/02/23 09:16:44;;;;;;;;;;;;;;;21.94;32.05;99020.97;4117420;28;20356;-60
2024/02/23 09:18:45;;;;;;;;;;;;;;;21.95;31.61;99021.81;4116743;28;19926;-63
2024/02/23 09:20:47;;;;;;;;;;;;;;;21.96;31.67;99028.84;4116119;28;19938;-61
2024/02/23 09:22:49;;;;;;;;;;;;;;;21.99;31.83;99017.78;4116243;28;19933;-61
2024/02/23 09:24:50;;;;;;;;;;;;;;;21.99;32.18;99013.28;4116709;28;19981;-60
2024/02/23 09:26:52;;;;;;;;;;;;;;;22.02;31.93;99014.78;4119135;28;19934;-61
2024/02/23 09:28:54;;;;;;;;;;;;;;;22.04;32.04;99014.59;4116333;28;19970;-63
2024/02/23 09:30:56;;;;;;;;;;;;;;;22.04;32.29;99010.06;4124408;28;19953;-61
2024/02/23 09:32:59;;;;;;;;;;;;;;;22.06;32.11;99024.13;4116563;28;19937;-62
2024/02/23 09:35:01;;;;;;;;;;;;;;;22.08;32.13;99016.78;4115855;28;19949;-62
2024/02/23 09:37:03;;;;;;;;;;;;;;;22.10;32.10;99027.31;4116211;28;19930;-62
2024/02/23 09:39:04;;;;;;;;;;;;;;;22.10;32.12;99019.28;4117871;28;19926;-61
2024/02/23 09:41:11;;;;;;;;;;;;;;;22.12;32.05;99022.63;4116034;28;19926;-60
2024/02/23 09:43:14;;;;;;;;;;;;;;;22.12;31.84;99028.78;4116082;28;19973;-62
2024/02/23 09:45:17;;;;;;;;;;;;;;;22.12;32.17;99027.97;4116247;28;19926;-61
2024/02/23 09:47:19;;;;;;;;;;;;;;;22.13;31.84;99029.66;4115568;28;19989;-63
2024/02/23 09:49:20;;;;;;;;;;;;;;;22.14;32.09;99025.94;4118820;28;19925;-60
2024/02/23 09:51:23;;;;;;;;;;;;;;;22.16;31.78;99032.81;4128078;28;19957;-64
2024/02/23 09:53:24;;;;;;;;;;;;;;;22.18;31.96;99028.13;4124034;28;19926;-60
2024/02/23 09:55:29;;;;;;;;;;;;;;;22.19;32.26;99026.28;4116518;28;19961;-61
2024/02/23 09:57:31;;;;;;;;;;;;;;;22.21;31.83;99042.16;4116033;28;20391;-62
2024/02/23 09:59:33;;;;;;;;;;;;;;;22.22;32.12;99033.97;4119180;28;19926;-61
2024/02/23 10:01:36;;;;;;;;;;;;;;;22.23;31.88;99035.63;4120159;28;20621;-60
2024/02/23 10:03:39;;;;;;;;;;;;;;;22.24;31.80;99036.50;4115740;28;20055;-60
2024/02/23 10:05:40;;;;;;;;;;;;;;;22.24;32.11;99033.81;4115797;28;20013;-63
2024/02/23 10:07:44;;;;;;;;;;;;;;;22.24;32.07;99047.19;4118449;28;19926;-64
2024/02/23 10:09:46;;;;;;;;;;;;;;;22.25;31.84;99040.81;4115849;28;19989;-61
2024/02/23 10:11:54;;;;;;;;;;;;;;;22.25;31.82;99047.03;4115806;28;19934;-59
2024/02/23 10:13:57;;;;;;;;;;;;;;;22.25;32.12;99046.16;4112897;28;19926;-60
2024/02/23 10:15:58;;;;;;;;;;;;;;;22.26;32.00;99046.03;4115828;28;19937;-61
2024/02/23 10:18:16;;;;;;;;;;;;;;;22.28;31.92;99052.00;4115213;28;19978;-62
2024/02/23 10:20:18;;;;;;;;;;;;;;;22.29;31.88;99040.31;4115531;28;19949;-63
2024/02/23 10:22:21;;;;;;;;;;;;;;;22.30;31.92;99044.66;4115668;28;20022;-62
2024/02/23 10:24:24;;;;;;;;;;;;;;;22.31;32.03;99048.19;4115200;28;19926;-59
2024/02/23 10:26:27;;;;;;;;;;;;;;;22.33;32.19;99043.47;4115780;28;19933;-61
2024/02/23 10:28:28;;;;;;;;;;;;;;;22.36;32.39;99043.16;4115182;28;19973;-65
2024/02/23 10:30:30;;;;;;;;;;;;;;;22.39;32.62;99044.66;4115614;28;19926;-60
2024/02/23 10:32:35;;;;;;;;;;;;;;;22.37;32.08;99047.50;4114990;28;19985;-64
2024/02/23 10:34:39;;;;;;;;;;;;;;;22.38;32.00;99033.09;4106525;28;20331;-65
2024/02/23 10:36:47;;;;;;;;;;;;;;;22.40;32.23;99032.94;4115550;28;19985;-64